sensor_id;sensor_type;location;lat;lon;timestamp;pressure;altitude;pressure_sealevel;temperature;humidity
85159;BME280;75525;50.718;10.600;2024-01-15T00:00:27;94314.84;;;-3.10;88.22
85159;BME280;75525;50.718;10.600;2024-01-15T00:01:27;94299.91;;;-3.22;88.60
85159;BME280;75525;50.718;10.600;2024-01-15T00:02:27;94313.66;;;-3.14;89.03
85159;BME280;75525;50.718;10.600;2024-01-15T00:03:28;94313.91;;;-3.15;88.70
85159;BME280;75525;50.718;10.600;2024-01-15T00:04:28;94318.72;;;-3.12;89.01
85159;BME280;75525;50.718;10.600;2024-01-15T00:05:29;94318.72;;;-3.12;88.58
85159;BME280;75525;50.718;10.600;2024-01-15T00:06:29;94306.53;;;-3.13;88.71
85159;BME280;75525;50.718;10.600;2024-01-15T00:07:29;94312.63;;;-3.13;89.13
85159;BME280;75525;50.718;10.600;2024-01-15T00:08:30;94294.19;;;-3.19;88.31
85159;BME280;75525;50.718;10.600;2024-01-15T00:09:30;94307.56;;;-3.14;88.32
85159;BME280;75525;50.718;10.600;2024-01-15T00:10:31;94294.00;;;-3.25;88.59
85159;BME280;75525;50.718;10.600;2024-01-15T00:11:31;94283.88;;;-3.28;88.73
85159;BME280;75525;50.718;10.600;2024-01-15T00:12:32;94287.97;;;-3.32;88.90
85159;BME280;75525;50.718;10.600;2024-01-15T00:13:32;94306.81;;;-3.21;89.48
85159;BME280;75525;50.718;10.600;2024-01-15T00:14:32;94297.09;;;-3.28;88.47
85159;BME280;75525;50.718;10.600;2024-01-15T00:15:33;94308.41;;;-3.20;88.86
85159;BME280;75525;50.718;10.600;2024-01-15T00:16:33;94290.78;;;-3.27;88.99
85159;BME280;75525;50.718;10.600;2024-01-15T00:17:34;94296.88;;;-3.26;88.27
85159;BME280;75525;50.718;10.600;2024-01-15T00:18:34;94306.81;;;-3.21;88.48
85159;BME280;75525;50.718;10.600;2024-01-15T00:19:35;94276.00;;;-3.41;88.89
85159;BME280;75525;50.718;10.600;2024-01-15T00:20:35;94301.94;;;-3.25;88.30
85159;BME280;75525;50.718;10.600;2024-01-15T00:21:36;94300.31;;;-3.26;88.84
85159;BME280;75525;50.718;10.600;2024-01-15T00:22:36;94293.41;;;-3.27;88.48
85159;BME280;75525;50.718;10.600;2024-01-15T00:23:42;94284.72;;;-3.34;89.05
85159;BME280;75525;50.718;10.600;2024-01-15T00:24:42;94285.09;;;-3.30;88.08
85159;BME280;75525;50.718;10.600;2024-01-15T00:25:43;94254.47;;;-3.44;88.55
85159;BME280;75525;50.718;10.600;2024-01-15T00:26:43;94282.84;;;-3.27;88.27
85159;BME280;75525;50.718;10.600;2024-01-15T00:27:44;94282.84;;;-3.27;88.01
85159;BME280;75525;50.718;10.600;2024-01-15T00:28:44;94281.81;;;-3.26;88.01
85159;BME280;75525;50.718;10.600;2024-01-15T00:29:44;94278.56;;;-3.28;88.38
85159;BME280;75525;50.718;10.600;2024-01-15T00:30:45;94270.44;;;-3.33;88.07
85159;BME280;75525;50.718;10.600;2024-01-15T00:31:45;94284.66;;;-3.27;88.02
85159;BME280;75525;50.718;10.600;2024-01-15T00:32:46;94268.03;;;-3.34;87.85
85159;BME280;75525;50.718;10.600;2024-01-15T00:33:46;94279.41;;;-3.34;88.03
85159;BME280;75525;50.718;10.600;2024-01-15T00:34:47;94288.31;;;-3.28;88.16
85159;BME280;75525;50.718;10.600;2024-01-15T00:35:47;94282.22;;;-3.29;87.63
85159;BME280;75525;50.718;10.600;2024-01-15T00:36:47;94269.44;;;-3.32;88.35
85159;BME280;75525;50.718;10.600;2024-01-15T00:37:48;94268.03;;;-3.34;88.73
85159;BME280;75525;50.718;10.600;2024-01-15T00:38:48;94277.38;;;-3.32;88.40
85159;BME280;75525;50.718;10.600;2024-01-15T00:39:49;94275.59;;;-3.38;87.60
85159;BME280;75525;50.718;10.600;2024-01-15T00:40:49;94268.41;;;-3.31;87.71
85159;BME280;75525;50.718;10.600;2024-01-15T00:41:50;94269.25;;;-3.37;87.89
85159;BME280;75525;50.718;10.600;2024-01-15T00:42:50;94270.06;;;-3.36;87.78
85159;BME280;75525;50.718;10.600;2024-01-15T00:43:51;94276.38;;;-3.37;87.94
85159;BME280;75525;50.718;10.600;2024-01-15T00:44:51;94284.50;;;-3.32;88.87
85159;BME280;75525;50.718;10.600;2024-01-15T00:45:51;94257.72;;;-3.42;88.87
85159;BME280;75525;50.718;10.600;2024-01-15T00:46:52;94272.34;;;-3.40;88.74
85159;BME280;75525;50.718;10.600;2024-01-15T00:47:52;94257.59;;;-3.54;88.25
85159;BME280;75525;50.718;10.600;2024-01-15T00:48:53;94269.91;;;-3.41;88.75
85159;BME280;75525;50.718;10.600;2024-01-15T00:49:53;94271.31;;;-3.39;88.37
85159;BME280;75525;50.718;10.600;2024-01-15T00:50:53;94265.63;;;-3.36;88.28
85159;BME280;75525;50.718;10.600;2024-01-15T00:51:54;94276.34;;;-3.31;88.28
85159;BME280;75525;50.718;10.600;2024-01-15T00:52:55;94284.44;;;-3.26;87.83
85159;BME280;75525;50.718;10.600;2024-01-15T00:53:55;94249.41;;;-3.46;87.40
85159;BME280;75525;50.718;10.600;2024-01-15T00:54:55;94288.69;;;-3.25;87.95
85159;BME280;75525;50.718;10.600;2024-01-15T00:55:57;94278.63;;;-3.34;87.84
85159;BME280;75525;50.718;10.600;2024-01-15T00:56:58;94267.66;;;-3.38;88.05
85159;BME280;75525;50.718;10.600;2024-01-15T00:57:58;94275.31;;;-3.30;87.91
85159;BME280;75525;50.718;10.600;2024-01-15T00:59:00;94278.56;;;-3.28;87.88
85159;BME280;75525;50.718;10.600;2024-01-15T01:00:00;94265.38;;;-3.34;87.65
85159;BME280;75525;50.718;10.600;2024-01-15T01:01:00;94259.13;;;-3.40;87.61
85159;BME280;75525;50.718;10.600;2024-01-15T01:02:01;94277.81;;;-3.35;87.96
85159;BME280;75525;50.718;10.600;2024-01-15T01:03:02;94278.56;;;-3.28;87.94
85159;BME280;75525;50.718;10.600;2024-01-15T01:04:03;94276.94;;;-3.29;87.72
85159;BME280;75525;50.718;10.600;2024-01-15T01:05:04;94267.22;;;-3.35;87.68
85159;BME280;75525;50.718;10.600;2024-01-15T01:06:04;94283.03;;;-3.28;87.41
85159;BME280;75525;50.718;10.600;2024-01-15T01:07:05;94263.13;;;-3.31;87.38
85159;BME280;75525;50.718;10.600;2024-01-15T01:08:05;94245.28;;;-3.42;87.58
85159;BME280;75525;50.718;10.600;2024-01-15T01:09:06;94251.34;;;-3.35;86.72
85159;BME280;75525;50.718;10.600;2024-01-15T01:10:06;94255.22;;;-3.37;87.20
85159;BME280;75525;50.718;10.600;2024-01-15T01:11:07;94265.94;;;-3.26;86.95
85159;BME280;75525;50.718;10.600;2024-01-15T01:12:07;94261.44;;;-3.25;87.74
85159;BME280;75525;50.718;10.600;2024-01-15T01:13:08;94241.56;;;-3.34;87.23
85159;BME280;75525;50.718;10.600;2024-01-15T01:14:09;94249.28;;;-3.33;87.47
85159;BME280;75525;50.718;10.600;2024-01-15T01:15:09;94264.88;;;-3.25;86.68
85159;BME280;75525;50.718;10.600;2024-01-15T01:16:09;94241.56;;;-3.34;86.22
85159;BME280;75525;50.718;10.600;2024-01-15T01:17:10;94259.03;;;-3.27;86.38
85159;BME280;75525;50.718;10.600;2024-01-15T01:18:10;94264.88;;;-3.25;87.16
85159;BME280;75525;50.718;10.600;2024-01-15T01:19:11;94255.34;;;-3.26;86.92
85159;BME280;75525;50.718;10.600;2024-01-15T01:20:11;94239.59;;;-3.39;87.35
85159;BME280;75525;50.718;10.600;2024-01-15T01:21:12;94256.22;;;-3.32;86.42
85159;BME280;75525;50.718;10.600;2024-01-15T01:22:13;94265.13;;;-3.26;86.62
85159;BME280;75525;50.718;10.600;2024-01-15T01:23:13;94259.03;;;-3.27;86.54
85159;BME280;75525;50.718;10.600;2024-01-15T01:24:13;94246.63;;;-3.33;86.51
85159;BME280;75525;50.718;10.600;2024-01-15T01:25:14;94269.19;;;-3.24;86.67
85159;BME280;75525;50.718;10.600;2024-01-15T01:26:17;94261.25;;;-3.24;86.63
85159;BME280;75525;50.718;10.600;2024-01-15T01:27:18;94259.03;;;-3.27;86.77
85159;BME280;75525;50.718;10.600;2024-01-15T01:28:18;94244.66;;;-3.37;87.06
85159;BME280;75525;50.718;10.600;2024-01-15T01:29:19;94256.56;;;-3.28;86.56
85159;BME280;75525;50.718;10.600;2024-01-15T01:30:19;94236.34;;;-3.41;86.37
85159;BME280;75525;50.718;10.600;2024-01-15T01:31:19;94246.06;;;-3.35;86.66
85159;BME280;75525;50.718;10.600;2024-01-15T01:32:20;94243.41;;;-3.35;86.59
85159;BME280;75525;50.718;10.600;2024-01-15T01:33:20;94247.69;;;-3.34;86.38
85159;BME280;75525;50.718;10.600;2024-01-15T01:34:21;94240.44;;;-3.45;86.74
85159;BME280;75525;50.718;10.600;2024-01-15T01:35:22;94246.50;;;-3.38;86.67
85159;BME280;75525;50.718;10.600;2024-01-15T01:36:22;94247.69;;;-3.34;86.42
85159;BME280;75525;50.718;10.600;2024-01-15T01:37:23;94230.84;;;-3.39;86.64
85159;BME280;75525;50.718;10.600;2024-01-15T01:38:23;94236.34;;;-3.41;86.48
85159;BME280;75525;50.718;10.600;2024-01-15T01:39:24;94244.00;;;-3.33;86.01
85159;BME280;75525;50.718;10.600;2024-01-15T01:40:24;94249.28;;;-3.33;86.23
85159;BME280;75525;50.718;10.600;2024-01-15T01:41:25;94256.41;;;-3.33;86.63
85159;BME280;75525;50.718;10.600;2024-01-15T01:42:25;94245.25;;;-3.35;85.85
85159;BME280;75525;50.718;10.600;2024-01-15T01:43:26;94249.34;;;-3.39;86.35
85159;BME280;75525;50.718;10.600;2024-01-15T01:44:26;94230.50;;;-3.50;86.43
85159;BME280;75525;50.718;10.600;2024-01-15T01:45:27;94248.09;;;-3.37;86.54
85159;BME280;75525;50.718;10.600;2024-01-15T01:46:27;94248.91;;;-3.36;86.58
85159;BME280;75525;50.718;10.600;2024-01-15T01:47:29;94252.16;;;-3.34;86.61
85159;BME280;75525;50.718;10.600;2024-01-15T01:48:29;94256.66;;;-3.35;86.06
85159;BME280;75525;50.718;10.600;2024-01-15T01:49:30;94256.66;;;-3.35;86.30
85159;BME280;75525;50.718;10.600;2024-01-15T01:50:31;94257.44;;;-3.34;86.13
85159;BME280;75525;50.718;10.600;2024-01-15T01:51:33;94258.69;;;-3.37;86.76
85159;BME280;75525;50.718;10.600;2024-01-15T01:52:35;94251.47;;;-3.48;86.30
85159;BME280;75525;50.718;10.600;2024-01-15T01:53:38;94259.13;;;-3.40;86.09
85159;BME280;75525;50.718;10.600;2024-01-15T01:54:40;94257.50;;;-3.41;86.16
85159;BME280;75525;50.718;10.600;2024-01-15T01:55:41;94247.03;;;-3.54;86.59
85159;BME280;75525;50.718;10.600;2024-01-15T01:56:41;94258.38;;;-3.47;86.13
85159;BME280;75525;50.718;10.600;2024-01-15T01:57:42;94259.56;;;-3.43;85.67
85159;BME280;75525;50.718;10.600;2024-01-15T01:58:44;94255.91;;;-3.49;85.91
85159;BME280;75525;50.718;10.600;2024-01-15T01:59:45;94248.63;;;-3.53;86.09
85159;BME280;75525;50.718;10.600;2024-01-15T02:00:47;94245.19;;;-3.54;86.11
85159;BME280;75525;50.718;10.600;2024-01-15T02:01:48;94263.22;;;-3.44;86.78
85159;BME280;75525;50.718;10.600;2024-01-15T02:02:49;94237.47;;;-3.55;86.89
85159;BME280;75525;50.718;10.600;2024-01-15T02:03:50;94256.69;;;-3.41;86.21
85159;BME280;75525;50.718;10.600;2024-01-15T02:04:50;94257.28;;;-3.39;86.40
85159;BME280;75525;50.718;10.600;2024-01-15T02:05:51;94254.84;;;-3.41;86.28
85159;BME280;75525;50.718;10.600;2024-01-15T02:06:53;94246.19;;;-3.48;86.43
85159;BME280;75525;50.718;10.600;2024-01-15T02:07:53;94255.47;;;-3.39;85.54
85159;BME280;75525;50.718;10.600;2024-01-15T02:08:55;94238.84;;;-3.53;86.06
85159;BME280;75525;50.718;10.600;2024-01-15T02:09:55;94253.22;;;-3.42;86.79
85159;BME280;75525;50.718;10.600;2024-01-15T02:10:56;94250.44;;;-3.47;86.63
85159;BME280;75525;50.718;10.600;2024-01-15T02:11:56;94255.66;;;-3.40;87.12
85159;BME280;75525;50.718;10.600;2024-01-15T02:12:57;94264.63;;;-3.41;87.13
85159;BME280;75525;50.718;10.600;2024-01-15T02:13:57;94262.19;;;-3.43;86.49
85159;BME280;75525;50.718;10.600;2024-01-15T02:14:58;94261.41;;;-3.43;86.12
85159;BME280;75525;50.718;10.600;2024-01-15T02:15:59;94256.31;;;-3.45;86.08
85159;BME280;75525;50.718;10.600;2024-01-15T02:16:59;94255.88;;;-3.42;85.89
85159;BME280;75525;50.718;10.600;2024-01-15T02:18:02;94260.94;;;-3.40;86.17
85159;BME280;75525;50.718;10.600;2024-01-15T02:19:02;94249.41;;;-3.46;86.12
85159;BME280;75525;50.718;10.600;2024-01-15T02:20:03;94255.66;;;-3.40;86.33
85159;BME280;75525;50.718;10.600;2024-01-15T02:21:04;94248.38;;;-3.45;86.78
85159;BME280;75525;50.718;10.600;2024-01-15T02:22:04;94252.19;;;-3.41;85.76
85159;BME280;75525;50.718;10.600;2024-01-15T02:23:11;94266.63;;;-3.37;86.50
85159;BME280;75525;50.718;10.600;2024-01-15T02:24:12;94245.72;;;-3.45;85.60
85159;BME280;75525;50.718;10.600;2024-01-15T02:25:12;94256.69;;;-3.41;85.68
85159;BME280;75525;50.718;10.600;2024-01-15T02:26:13;94256.91;;;-3.43;85.44
85159;BME280;75525;50.718;10.600;2024-01-15T02:27:14;94253.66;;;-3.45;85.83
85159;BME280;75525;50.718;10.600;2024-01-15T02:28:16;94265.25;;;-3.46;85.63
85159;BME280;75525;50.718;10.600;2024-01-15T02:29:17;94241.16;;;-3.56;86.62
85159;BME280;75525;50.718;10.600;2024-01-15T02:30:18;94241.16;;;-3.56;86.03
85159;BME280;75525;50.718;10.600;2024-01-15T02:31:18;94244.59;;;-3.56;86.00
85159;BME280;75525;50.718;10.600;2024-01-15T02:32:18;94245.19;;;-3.54;86.02
85159;BME280;75525;50.718;10.600;2024-01-15T02:33:19;94244.78;;;-3.57;86.10
85159;BME280;75525;50.718;10.600;2024-01-15T02:34:19;94263.22;;;-3.44;86.02
85159;BME280;75525;50.718;10.600;2024-01-15T02:35:20;94249.81;;;-3.49;85.66
85159;BME280;75525;50.718;10.600;2024-01-15T02:36:20;94243.72;;;-3.50;86.10
85159;BME280;75525;50.718;10.600;2024-01-15T02:37:21;94261.22;;;-3.49;85.51
85159;BME280;75525;50.718;10.600;2024-01-15T02:38:21;94232.44;;;-3.63;86.33
85159;BME280;75525;50.718;10.600;2024-01-15T02:39:21;94258.56;;;-3.49;86.67
85159;BME280;75525;50.718;10.600;2024-01-15T02:40:22;94260.84;;;-3.52;85.96
85159;BME280;75525;50.718;10.600;2024-01-15T02:41:22;94251.91;;;-3.58;86.03
85159;BME280;75525;50.718;10.600;2024-01-15T02:42:23;94249.44;;;-3.53;86.39
85159;BME280;75525;50.718;10.600;2024-01-15T02:43:23;94255.97;;;-3.55;85.74
85159;BME280;75525;50.718;10.600;2024-01-15T02:44:24;94265.25;;;-3.46;86.12
85159;BME280;75525;50.718;10.600;2024-01-15T02:45:24;94246.44;;;-3.56;86.05
85159;BME280;75525;50.718;10.600;2024-01-15T02:46:25;94249.00;;;-3.50;85.71
85159;BME280;75525;50.718;10.600;2024-01-15T02:47:25;94246.19;;;-3.48;85.78
85159;BME280;75525;50.718;10.600;2024-01-15T02:48:26;94234.81;;;-3.55;86.11
85159;BME280;75525;50.718;10.600;2024-01-15T02:49:26;94261.00;;;-3.47;86.05
85159;BME280;75525;50.718;10.600;2024-01-15T02:50:26;94249.00;;;-3.50;86.21
85159;BME280;75525;50.718;10.600;2024-01-15T02:51:27;94242.91;;;-3.50;86.61
85159;BME280;75525;50.718;10.600;2024-01-15T02:52:28;94250.63;;;-3.49;85.90
85159;BME280;75525;50.718;10.600;2024-01-15T02:53:28;94250.63;;;-3.49;85.97
85159;BME280;75525;50.718;10.600;2024-01-15T02:54:29;94243.41;;;-3.60;86.32
85159;BME280;75525;50.718;10.600;2024-01-15T02:55:29;94233.22;;;-3.56;86.90
85159;BME280;75525;50.718;10.600;2024-01-15T02:56:29;94235.91;;;-3.63;86.36
85159;BME280;75525;50.718;10.600;2024-01-15T02:57:30;94248.22;;;-3.50;86.17
85159;BME280;75525;50.718;10.600;2024-01-15T02:58:31;94263.66;;;-3.47;87.16
85159;BME280;75525;50.718;10.600;2024-01-15T02:59:31;94230.38;;;-3.61;86.10
85159;BME280;75525;50.718;10.600;2024-01-15T03:00:31;94253.50;;;-3.50;86.86
85159;BME280;75525;50.718;10.600;2024-01-15T03:01:32;94242.69;;;-3.49;86.90
85159;BME280;75525;50.718;10.600;2024-01-15T03:02:33;94257.75;;;-3.49;86.08
85159;BME280;75525;50.718;10.600;2024-01-15T03:03:33;94209.97;;;-3.79;86.13
85159;BME280;75525;50.718;10.600;2024-01-15T03:04:34;94255.09;;;-3.49;86.82
85159;BME280;75525;50.718;10.600;2024-01-15T03:05:34;94259.81;;;-3.51;86.02
85159;BME280;75525;50.718;10.600;2024-01-15T03:06:34;94246.63;;;-3.58;86.83
85159;BME280;75525;50.718;10.600;2024-01-15T03:07:35;94251.06;;;-3.52;86.61
85159;BME280;75525;50.718;10.600;2024-01-15T03:08:35;94242.34;;;-3.52;86.62
85159;BME280;75525;50.718;10.600;2024-01-15T03:09:36;94254.53;;;-3.51;86.56
85159;BME280;75525;50.718;10.600;2024-01-15T03:10:36;94250.28;;;-3.52;86.92
85159;BME280;75525;50.718;10.600;2024-01-15T03:11:38;94245.34;;;-3.49;87.04
85159;BME280;75525;50.718;10.600;2024-01-15T03:12:39;94243.31;;;-3.46;86.94
85159;BME280;75525;50.718;10.600;2024-01-15T03:13:39;94237.63;;;-3.50;87.49
85159;BME280;75525;50.718;10.600;2024-01-15T03:14:40;94247.38;;;-3.44;87.24
85159;BME280;75525;50.718;10.600;2024-01-15T03:15:40;94251.63;;;-3.43;86.51
85159;BME280;75525;50.718;10.600;2024-01-15T03:16:40;94251.00;;;-3.45;86.72
85159;BME280;75525;50.718;10.600;2024-01-15T03:17:42;94234.03;;;-3.56;87.24
85159;BME280;75525;50.718;10.600;2024-01-15T03:18:45;94247.38;;;-3.44;86.93
85159;BME280;75525;50.718;10.600;2024-01-15T03:19:45;94242.13;;;-3.51;86.51
85159;BME280;75525;50.718;10.600;2024-01-15T03:20:46;94240.44;;;-3.45;87.57
85159;BME280;75525;50.718;10.600;2024-01-15T03:21:46;94245.91;;;-3.40;87.24
85159;BME280;75525;50.718;10.600;2024-01-15T03:22:47;94242.22;;;-3.39;86.63
85159;BME280;75525;50.718;10.600;2024-01-15T03:23:47;94239.63;;;-3.45;86.71
85159;BME280;75525;50.718;10.600;2024-01-15T03:24:47;94252.19;;;-3.41;86.76
85159;BME280;75525;50.718;10.600;2024-01-15T03:25:48;94244.50;;;-3.42;87.03
85159;BME280;75525;50.718;10.600;2024-01-15T03:26:49;94231.53;;;-3.51;87.50
85159;BME280;75525;50.718;10.600;2024-01-15T03:27:49;94237.22;;;-3.47;87.86
85159;BME280;75525;50.718;10.600;2024-01-15T03:28:50;94234.56;;;-3.47;88.07
85159;BME280;75525;50.718;10.600;2024-01-15T03:29:50;94235.59;;;-3.48;87.83
85159;BME280;75525;50.718;10.600;2024-01-15T03:30:51;94234.56;;;-3.47;88.20
85159;BME280;75525;50.718;10.600;2024-01-15T03:31:51;94230.31;;;-3.48;88.77
85159;BME280;75525;50.718;10.600;2024-01-15T03:32:52;94229.03;;;-3.45;88.92
85159;BME280;75525;50.718;10.600;2024-01-15T03:33:52;94238.25;;;-3.48;88.58
85159;BME280;75525;50.718;10.600;2024-01-15T03:34:52;94236.88;;;-3.57;87.96
85159;BME280;75525;50.718;10.600;2024-01-15T03:35:53;94224.66;;;-3.58;88.04
85159;BME280;75525;50.718;10.600;2024-01-15T03:36:53;94224.25;;;-3.55;87.54
85159;BME280;75525;50.718;10.600;2024-01-15T03:37:54;94230.06;;;-3.46;88.13
85159;BME280;75525;50.718;10.600;2024-01-15T03:38:54;94243.31;;;-3.46;87.74
85159;BME280;75525;50.718;10.600;2024-01-15T03:39:55;94226.47;;;-3.52;87.70
85159;BME280;75525;50.718;10.600;2024-01-15T03:40:55;94225.91;;;-3.61;88.40
85159;BME280;75525;50.718;10.600;2024-01-15T03:41:55;94246.19;;;-3.48;88.39
85159;BME280;75525;50.718;10.600;2024-01-15T03:42:56;94232.13;;;-3.49;88.04
85159;BME280;75525;50.718;10.600;2024-01-15T03:43:56;94233.16;;;-3.50;87.94
85159;BME280;75525;50.718;10.600;2024-01-15T03:44:58;94239.25;;;-3.49;88.16
85159;BME280;75525;50.718;10.600;2024-01-15T03:45:59;94223.00;;;-3.53;87.31
85159;BME280;75525;50.718;10.600;2024-01-15T03:46:59;94237.22;;;-3.47;87.29
85159;BME280;75525;50.718;10.600;2024-01-15T03:48:01;94232.72;;;-3.46;87.81
85159;BME280;75525;50.718;10.600;2024-01-15T03:49:01;94221.59;;;-3.55;87.96
85159;BME280;75525;50.718;10.600;2024-01-15T03:50:02;94206.59;;;-3.61;87.82
85159;BME280;75525;50.718;10.600;2024-01-15T03:51:03;94222.19;;;-3.53;87.39
85159;BME280;75525;50.718;10.600;2024-01-15T03:52:03;94208.66;;;-3.63;87.71
85159;BME280;75525;50.718;10.600;2024-01-15T03:53:04;94209.22;;;-3.61;87.83
85159;BME280;75525;50.718;10.600;2024-01-15T03:54:04;94215.31;;;-3.61;87.80
85159;BME280;75525;50.718;10.600;2024-01-15T03:55:05;94222.19;;;-3.53;87.52
85159;BME280;75525;50.718;10.600;2024-01-15T03:56:06;94222.63;;;-3.56;88.04
85159;BME280;75525;50.718;10.600;2024-01-15T03:57:06;94231.97;;;-3.54;88.22
85159;BME280;75525;50.718;10.600;2024-01-15T03:58:06;94223.47;;;-3.62;88.29
85159;BME280;75525;50.718;10.600;2024-01-15T03:59:07;94239.09;;;-3.54;87.83
85159;BME280;75525;50.718;10.600;2024-01-15T04:00:08;94236.00;;;-3.51;87.72
85159;BME280;75525;50.718;10.600;2024-01-15T04:01:11;94231.31;;;-3.49;87.89
85159;BME280;75525;50.718;10.600;2024-01-15T04:02:12;94236.81;;;-3.51;87.19
85159;BME280;75525;50.718;10.600;2024-01-15T04:03:12;94234.03;;;-3.56;88.27
85159;BME280;75525;50.718;10.600;2024-01-15T04:04:13;94241.88;;;-3.49;88.23
85159;BME280;75525;50.718;10.600;2024-01-15T04:05:13;94238.44;;;-3.50;87.93
85159;BME280;75525;50.718;10.600;2024-01-15T04:06:14;94234.41;;;-3.52;87.77
85159;BME280;75525;50.718;10.600;2024-01-15T04:07:14;94238.00;;;-3.46;87.92
85159;BME280;75525;50.718;10.600;2024-01-15T04:08:15;94237.22;;;-3.47;88.25
85159;BME280;75525;50.718;10.600;2024-01-15T04:09:15;94237.22;;;-3.47;88.12
85159;BME280;75525;50.718;10.600;2024-01-15T04:10:16;94231.91;;;-3.47;87.89
85159;BME280;75525;50.718;10.600;2024-01-15T04:11:16;94233.53;;;-3.46;87.52
85159;BME280;75525;50.718;10.600;2024-01-15T04:12:16;94232.72;;;-3.46;87.64
85159;BME280;75525;50.718;10.600;2024-01-15T04:13:17;94234.34;;;-3.45;87.32
85159;BME280;75525;50.718;10.600;2024-01-15T04:14:17;94234.34;;;-3.45;87.27
85159;BME280;75525;50.718;10.600;2024-01-15T04:15:18;94236.78;;;-3.44;87.27
85159;BME280;75525;50.718;10.600;2024-01-15T04:16:18;94231.91;;;-3.47;87.52
85159;BME280;75525;50.718;10.600;2024-01-15T04:17:19;94236.78;;;-3.44;87.65
85159;BME280;75525;50.718;10.600;2024-01-15T04:18:19;94179.69;;;-3.77;87.83
85159;BME280;75525;50.718;10.600;2024-01-15T04:19:20;94219.13;;;-3.50;87.35
85159;BME280;75525;50.718;10.600;2024-01-15T04:20:20;94206.53;;;-3.55;87.13
85159;BME280;75525;50.718;10.600;2024-01-15T04:21:21;94222.53;;;-3.43;87.03
85159;BME280;75525;50.718;10.600;2024-01-15T04:22:21;94226.19;;;-3.44;87.79
85159;BME280;75525;50.718;10.600;2024-01-15T04:23:22;94230.66;;;-3.44;87.60
85159;BME280;75525;50.718;10.600;2024-01-15T04:24:22;94229.66;;;-3.43;87.85
85159;BME280;75525;50.718;10.600;2024-01-15T04:25:22;94220.16;;;-3.51;87.30
85159;BME280;75525;50.718;10.600;2024-01-15T04:26:23;94218.53;;;-3.52;87.20
85159;BME280;75525;50.718;10.600;2024-01-15T04:27:23;94245.28;;;-3.42;87.56
85159;BME280;75525;50.718;10.600;2024-01-15T04:28:24;94233.53;;;-3.46;87.01
85159;BME280;75525;50.718;10.600;2024-01-15T04:29:24;94234.72;;;-3.42;87.60
85159;BME280;75525;50.718;10.600;2024-01-15T04:30:25;94220.91;;;-3.44;87.63
85159;BME280;75525;50.718;10.600;2024-01-15T04:31:26;94213.66;;;-3.55;87.61
85159;BME280;75525;50.718;10.600;2024-01-15T04:32:29;94210.41;;;-3.57;87.22
85159;BME280;75525;50.718;10.600;2024-01-15T04:33:29;94215.28;;;-3.54;87.97
85159;BME280;75525;50.718;10.600;2024-01-15T04:34:30;94208.97;;;-3.53;87.76
85159;BME280;75525;50.718;10.600;2024-01-15T04:35:30;94226.19;;;-3.44;87.05
85159;BME280;75525;50.718;10.600;2024-01-15T04:36:31;94226.19;;;-3.44;87.15
85159;BME280;75525;50.718;10.600;2024-01-15T04:37:31;94229.66;;;-3.43;87.96
85159;BME280;75525;50.718;10.600;2024-01-15T04:38:32;94219.72;;;-3.48;86.93
85159;BME280;75525;50.718;10.600;2024-01-15T04:39:33;94229.84;;;-3.45;87.73
85159;BME280;75525;50.718;10.600;2024-01-15T04:40:33;94216.09;;;-3.54;87.42
85159;BME280;75525;50.718;10.600;2024-01-15T04:41:34;94222.94;;;-3.46;86.83
85159;BME280;75525;50.718;10.600;2024-01-15T04:42:34;94210.00;;;-3.54;87.13
85159;BME280;75525;50.718;10.600;2024-01-15T04:43:35;94214.44;;;-3.48;87.21
85159;BME280;75525;50.718;10.600;2024-01-15T04:44:35;94219.72;;;-3.48;87.33
85159;BME280;75525;50.718;10.600;2024-01-15T04:45:36;94223.38;;;-3.49;87.49
85159;BME280;75525;50.718;10.600;2024-01-15T04:46:36;94229.28;;;-3.47;87.31
85159;BME280;75525;50.718;10.600;2024-01-15T04:47:37;94217.66;;;-3.46;87.29
85159;BME280;75525;50.718;10.600;2024-01-15T04:48:37;94225.38;;;-3.44;87.51
85159;BME280;75525;50.718;10.600;2024-01-15T04:49:38;94224.13;;;-3.42;87.48
85159;BME280;75525;50.718;10.600;2024-01-15T04:50:38;94224.13;;;-3.42;86.89
85159;BME280;75525;50.718;10.600;2024-01-15T04:51:39;94203.66;;;-3.53;86.68
85159;BME280;75525;50.718;10.600;2024-01-15T04:52:39;94211.19;;;-3.50;86.75
85159;BME280;75525;50.718;10.600;2024-01-15T04:53:41;94215.44;;;-3.49;87.38
85159;BME280;75525;50.718;10.600;2024-01-15T04:54:41;94210.00;;;-3.54;87.55
85159;BME280;75525;50.718;10.600;2024-01-15T04:55:42;94215.63;;;-3.44;86.84
85159;BME280;75525;50.718;10.600;2024-01-15T04:56:42;94228.84;;;-3.44;87.15
85159;BME280;75525;50.718;10.600;2024-01-15T04:57:42;94213.97;;;-3.45;86.99
85159;BME280;75525;50.718;10.600;2024-01-15T04:58:44;94211.19;;;-3.50;86.65
85159;BME280;75525;50.718;10.600;2024-01-15T04:59:44;94194.81;;;-3.65;86.49
85159;BME280;75525;50.718;10.600;2024-01-15T05:00:44;94222.38;;;-3.48;86.53
85159;BME280;75525;50.718;10.600;2024-01-15T05:01:45;94214.47;;;-3.55;86.94
85159;BME280;75525;50.718;10.600;2024-01-15T05:02:45;94212.63;;;-3.54;87.13
85159;BME280;75525;50.718;10.600;2024-01-15T05:03:46;94231.31;;;-3.49;86.60
85159;BME280;75525;50.718;10.600;2024-01-15T05:04:46;94223.81;;;-3.52;86.58
85159;BME280;75525;50.718;10.600;2024-01-15T05:05:46;94229.69;;;-3.50;87.39
85159;BME280;75525;50.718;10.600;2024-01-15T05:06:47;94226.66;;;-3.54;86.68
85159;BME280;75525;50.718;10.600;2024-01-15T05:07:47;94224.25;;;-3.55;87.17
85159;BME280;75525;50.718;10.600;2024-01-15T05:08:48;94221.81;;;-3.57;86.70
85159;BME280;75525;50.718;10.600;2024-01-15T05:09:48;94216.16;;;-3.60;87.03
85159;BME280;75525;50.718;10.600;2024-01-15T05:10:48;94206.16;;;-3.58;87.29
85159;BME280;75525;50.718;10.600;2024-01-15T05:11:49;94230.50;;;-3.50;86.74
85159;BME280;75525;50.718;10.600;2024-01-15T05:12:49;94216.09;;;-3.54;86.78
85159;BME280;75525;50.718;10.600;2024-01-15T05:13:50;94231.53;;;-3.51;86.94
85159;BME280;75525;50.718;10.600;2024-01-15T05:14:50;94235.22;;;-3.52;86.59
85159;BME280;75525;50.718;10.600;2024-01-15T05:15:51;94221.00;;;-3.57;86.73
85159;BME280;75525;50.718;10.600;2024-01-15T05:16:51;94228.50;;;-3.54;86.72